Terminal Aerodrome Forecast
Issued by NWS

Home | Current Version | Previous Version | Text Only | Print | Product List | Glossary On
Versions: 1 2 3 4 5 6 7 8 9 10 11 12 13
000
FTUS45 KTFX 230500
TAFHLN
TAF
KHLN 230520Z 2306/2406 28010KT P6SM BKN050
     FM231200 29010KT P6SM VCSH SCT030 OVC050
     FM232200 25007KT P6SM SCT040 BKN070=

USA.gov is the U.S. government's official web portal to all federal, state and local government web resources and services.